Folsom, NM (88419)

10:04 AM MDT on August 31, 2016 (GMT -0600)
Baca Valley | | Change Station

Elev 6645 ft 36.76 °N, 103.83 °W | Updated 6 seconds ago

Clear
Clear
70.0 °F
Feels Like 70.0 °F
N
5.0
Wind Variable Wind from NE
Gusts 8.0 mph

Today
High -- | Low -- °F
--% Chance of Precip.
Yesterday
High -- | Low -- °F
Precip. -- in
Pressure 30.13 in
Visibility 10.0 miles
Clouds Clear
Dew Point 54 °F
Humidity 58%
Rainfall Not available.
Snow Depth Not available.
6:25 AM 7:24 PM
Waning Crescent, 1% visible
METAR KTAD 311554Z AUTO VRB03KT 10SM CLR 19/10 A3033 RMK AO2 SLP203 T01940100
Pressure 30.13 in
Visibility 10.0 miles
Clouds Clear
Dew Point 54 °F
Humidity 58%
Rainfall Not available.
Snow Depth Not available.
6:25 AM 7:24 PM
Waning Crescent, 1% visible
METAR KTAD 311554Z AUTO VRB03KT 10SM CLR 19/10 A3033 RMK AO2 SLP203 T01940100

10-Day Weather Forecast

Almanac

Astronomy

Aug. 31, 2016 Rise Set
Actual Time
Civil Twilight
Nautical Twilight
Astronomical Twilight
Moon
Length of Visible Light
Length of Day
Tomorrow will be .
, % of the Moon is Illuminated

Today's Extremes

State Highs State Lows

Community

WunderPhotos

Upload Photos

1,936,102 photos uploaded!

WunderBlog® & News

Nearby

Air Quality

  Air Quality AQ Index Pollutant
Not available.

Snow Depth

Station Depth Elevation

Earthquake Activity

City Distance Mag. Time & Date
Minimum magnitude displayed is 2.5.

Coastal Water Temperatures

Place Temperature

Stations

Nearby Weather Stations

Station Location Temp. Windchill Dew Point Humidity Wind Precip. Elev Updated Type
                   

Watches & Warnings

There are currently no watches in effect.